createdAt,value
2022-08-25T00:00:03.297Z,71.16
2022-08-25T00:02:09.934Z,71.21
2022-08-25T00:04:15.468Z,71.39
2022-08-25T00:06:21.242Z,71.39
2022-08-25T00:08:24.878Z,71.10
2022-08-25T00:10:28.971Z,71.11
2022-08-25T00:12:32.662Z,71.63
2022-08-25T00:14:39.410Z,71.43
2022-08-25T00:16:43.603Z,71.62
2022-08-25T00:18:49.465Z,71.60
2022-08-25T00:20:53.066Z,71.60
2022-08-25T00:22:58.720Z,71.74
2022-08-25T00:25:02.753Z,72.07
2022-08-25T00:27:07.640Z,71.95
2022-08-25T00:29:12.554Z,72.15
2022-08-25T00:31:20.431Z,72.09
2022-08-25T00:33:24.271Z,71.87
2022-08-25T00:35:28.634Z,72.18
2022-08-25T00:37:32.513Z,72.37
2022-08-25T00:39:39.753Z,71.92
2022-08-25T00:41:44.722Z,72.03
2022-08-25T00:43:53.275Z,72.02
2022-08-25T00:45:56.781Z,72.23
2022-08-25T00:48:00.695Z,71.85
2022-08-25T00:50:10.130Z,72.28
2022-08-25T00:52:19.672Z,72.35
2022-08-25T00:54:27.378Z,72.23
2022-08-25T00:56:32.808Z,72.10
2022-08-25T00:58:37.375Z,72.27
2022-08-25T01:00:44.155Z,72.07
2022-08-25T01:02:47.626Z,72.38
2022-08-25T01:04:51.355Z,72.64
2022-08-25T01:06:56.523Z,72.65
2022-08-25T01:08:59.967Z,73.13
2022-08-25T01:11:06.068Z,73.22
2022-08-25T01:13:16.399Z,72.79
2022-08-25T01:15:21.791Z,73.48
2022-08-25T01:17:28.264Z,73.32
2022-08-25T01:19:33.524Z,73.19
2022-08-25T01:21:44.397Z,73.88
2022-08-25T01:23:48.330Z,74.19
2022-08-25T01:26:00.076Z,74.21
2022-08-25T01:28:04.285Z,74.13
2022-08-25T01:30:08.607Z,73.85
2022-08-25T01:32:14.687Z,73.98
2022-08-25T01:34:19.535Z,73.99
2022-08-25T01:36:23.987Z,74.56
2022-08-25T01:38:28.852Z,74.80
2022-08-25T01:40:33.505Z,75.33
2022-08-25T01:42:48.439Z,75.14
2022-08-25T01:44:52.178Z,75.24
2022-08-25T01:46:55.923Z,75.90
2022-08-25T01:48:59.896Z,75.41
2022-08-25T01:51:05.491Z,75.63
2022-08-25T01:53:10.822Z,75.99
2022-08-25T01:55:15.712Z,76.36
2022-08-25T01:57:19.001Z,76.57
2022-08-25T01:59:24.436Z,76.73
2022-08-25T02:01:27.940Z,77.01
2022-08-25T02:03:31.631Z,76.69
2022-08-25T02:05:35.868Z,76.53
2022-08-25T02:07:39.547Z,77.27
2022-08-25T02:09:44.318Z,77.51
2022-08-25T02:11:49.232Z,77.59
2022-08-25T02:13:52.991Z,77.95
2022-08-25T02:15:59.429Z,77.21
2022-08-25T02:18:02.711Z,77.28
2022-08-25T02:20:08.511Z,77.31
2022-08-25T02:22:11.734Z,78.17
2022-08-25T02:24:15.416Z,77.78
2022-08-25T02:26:20.099Z,77.82
2022-08-25T02:28:25.041Z,77.94
2022-08-25T02:30:28.646Z,78.57
2022-08-25T02:32:32.132Z,78.23
2022-08-25T02:34:35.540Z,78.33
2022-08-25T02:36:39.491Z,78.84
2022-08-25T02:38:43.753Z,78.55
2022-08-25T02:40:47.050Z,78.51
2022-08-25T02:42:51.398Z,78.36
2022-08-25T02:44:56.596Z,79.17
2022-08-25T02:47:00.133Z,78.53
2022-08-25T02:49:03.458Z,79.14
2022-08-25T02:51:09.036Z,78.74
2022-08-25T02:53:12.352Z,78.55
2022-08-25T02:55:16.355Z,79.40
2022-08-25T02:57:19.744Z,79.47
2022-08-25T02:59:22.996Z,79.52
2022-08-25T03:01:29.077Z,79.52
2022-08-25T03:03:36.295Z,80.10
2022-08-25T03:05:42.776Z,80.08
2022-08-25T03:07:46.002Z,79.48
2022-08-25T03:09:50.080Z,80.15
2022-08-25T03:11:53.292Z,79.46
2022-08-25T03:13:57.133Z,80.07
2022-08-25T03:16:00.755Z,80.41
2022-08-25T03:18:08.615Z,80.01
2022-08-25T03:20:12.251Z,80.16
2022-08-25T03:22:15.606Z,79.84
2022-08-25T03:24:18.843Z,80.30
2022-08-25T03:26:39.564Z,80.25
2022-08-25T03:28:42.956Z,80.24
2022-08-25T03:30:46.608Z,80.54
2022-08-25T03:32:56.992Z,80.89
2022-08-25T03:35:02.081Z,80.85
2022-08-25T03:37:07.008Z,81.14
2022-08-25T03:39:10.742Z,81.37
2022-08-25T03:41:16.317Z,81.12
2022-08-25T03:43:20.155Z,81.19
2022-08-25T03:45:24.023Z,81.16
2022-08-25T03:47:29.506Z,81.62
2022-08-25T03:49:33.445Z,81.43
2022-08-25T03:51:42.757Z,81.27
2022-08-25T03:53:45.999Z,81.95
2022-08-25T03:55:49.337Z,81.73
2022-08-25T03:57:53.073Z,81.85
2022-08-25T03:59:56.540Z,81.42
2022-08-25T04:01:59.897Z,81.15
2022-08-25T04:04:03.397Z,81.62
2022-08-25T04:06:08.866Z,81.75
2022-08-25T04:08:13.720Z,81.80
2022-08-25T04:10:17.063Z,82.48
2022-08-25T04:12:20.395Z,82.31
2022-08-25T04:14:26.275Z,82.24
2022-08-25T04:16:31.905Z,82.67
2022-08-25T04:18:35.225Z,82.72
2022-08-25T04:20:40.511Z,82.18
2022-08-25T04:22:46.954Z,82.93
2022-08-25T04:24:51.716Z,83.06
2022-08-25T04:26:55.144Z,82.59
2022-08-25T04:29:00.097Z,83.05
2022-08-25T04:31:03.391Z,82.85
2022-08-25T04:33:06.905Z,83.39
2022-08-25T04:35:11.121Z,83.34
2022-08-25T04:37:14.539Z,83.20
2022-08-25T04:39:20.291Z,84.09
2022-08-25T04:41:25.660Z,83.83
2022-08-25T04:43:28.950Z,84.61
2022-08-25T04:45:32.301Z,84.39
2022-08-25T04:47:38.914Z,84.78
2022-08-25T04:49:42.301Z,84.56
2022-08-25T04:51:45.800Z,84.42
2022-08-25T04:53:49.137Z,84.29
2022-08-25T04:55:52.377Z,84.62
2022-08-25T04:57:57.259Z,85.38
2022-08-25T05:00:00.547Z,84.59
2022-08-25T05:02:05.429Z,84.93
2022-08-25T05:04:14.706Z,84.79
2022-08-25T05:06:31.890Z,84.94
2022-08-25T05:08:35.953Z,85.18
2022-08-25T05:10:42.042Z,84.84
2022-08-25T05:12:47.252Z,85.08
2022-08-25T05:14:54.206Z,84.95
2022-08-25T05:16:58.368Z,85.11
2022-08-25T05:19:01.992Z,85.21
2022-08-25T05:21:07.214Z,84.67
2022-08-25T05:23:10.646Z,84.92
2022-08-25T05:25:14.814Z,84.43
2022-08-25T05:27:18.110Z,84.73
2022-08-25T05:29:22.990Z,85.14
2022-08-25T05:31:29.385Z,84.82
2022-08-25T05:33:33.017Z,84.66
2022-08-25T05:35:37.044Z,84.73
2022-08-25T05:37:40.644Z,83.92
2022-08-25T05:39:43.952Z,83.86
2022-08-25T05:41:47.210Z,84.29
2022-08-25T05:43:50.934Z,83.68
2022-08-25T05:45:55.725Z,84.62
2022-08-25T05:48:01.099Z,84.19
2022-08-25T05:50:04.738Z,84.58
2022-08-25T05:52:08.220Z,84.66
2022-08-25T05:54:11.619Z,83.95
2022-08-25T05:56:15.594Z,83.57
2022-08-25T05:58:18.996Z,83.48
2022-08-25T06:00:22.493Z,83.32
2022-08-25T06:02:45.636Z,83.65
2022-08-25T06:04:50.482Z,82.88
2022-08-25T06:06:55.078Z,83.13
2022-08-25T06:08:58.448Z,82.75
2022-08-25T06:11:01.732Z,82.15
2022-08-25T06:13:06.439Z,82.33
2022-08-25T06:15:11.491Z,81.89
2022-08-25T06:17:14.898Z,81.79
2022-08-25T06:19:18.425Z,81.90
2022-08-25T06:21:23.136Z,81.65
2022-08-25T06:23:26.592Z,80.76
2022-08-25T06:25:32.834Z,77.65
2022-08-25T06:27:36.909Z,73.39
2022-08-25T06:29:40.214Z,69.75
2022-08-25T06:31:46.091Z,66.67
2022-08-25T06:33:50.065Z,63.09
2022-08-25T06:35:56.082Z,61.05
2022-08-25T06:38:00.763Z,59.49
2022-08-25T06:40:07.309Z,57.98
2022-08-25T06:42:11.099Z,56.17
2022-08-25T06:44:15.686Z,55.33
2022-08-25T06:46:21.557Z,54.03
2022-08-25T06:48:25.052Z,52.73
2022-08-25T06:50:28.425Z,51.75
2022-08-25T06:52:31.942Z,51.25
2022-08-25T06:54:37.173Z,50.59
2022-08-25T06:56:42.567Z,49.96
2022-08-25T06:58:46.364Z,48.47
2022-08-25T07:00:49.613Z,48.51
2022-08-25T07:02:52.953Z,48.01
2022-08-25T07:04:56.742Z,47.15
2022-08-25T07:07:00.291Z,46.99
2022-08-25T07:09:04.936Z,48.64
2022-08-25T07:11:16.452Z,50.45
2022-08-25T07:13:20.528Z,52.61
2022-08-25T07:15:24.106Z,54.22
2022-08-25T07:17:27.395Z,55.89
2022-08-25T07:19:31.227Z,57.03
2022-08-25T07:21:37.545Z,58.51
2022-08-25T07:23:41.528Z,58.87
2022-08-25T07:25:44.820Z,60.19
2022-08-25T07:27:49.654Z,60.69
2022-08-25T07:29:54.211Z,61.89
2022-08-25T07:31:57.619Z,62.46
2022-08-25T07:34:18.457Z,63.66
2022-08-25T07:36:23.258Z,64.64
2022-08-25T07:38:26.673Z,65.59
2022-08-25T07:40:33.229Z,66.03
2022-08-25T07:42:37.031Z,66.99
2022-08-25T07:44:43.452Z,67.62
2022-08-25T07:46:47.186Z,67.90
2022-08-25T07:48:53.363Z,67.98
2022-08-25T07:50:57.454Z,68.33
2022-08-25T07:53:01.640Z,68.39
2022-08-25T07:55:08.194Z,67.95
2022-08-25T07:57:14.607Z,67.57
2022-08-25T07:59:18.120Z,67.21
2022-08-25T08:01:25.735Z,66.12
2022-08-25T08:03:45.425Z,64.33
2022-08-25T08:05:56.739Z,63.79
2022-08-25T08:08:00.672Z,63.89
2022-08-25T08:10:33.280Z,64.43
2022-08-25T08:12:29.910Z,64.60
2022-08-25T08:14:34.700Z,64.33
2022-08-25T08:16:39.946Z,64.50
2022-08-25T08:18:46.553Z,64.82
2022-08-25T08:20:51.059Z,65.17
2022-08-25T08:22:54.676Z,65.44
2022-08-25T08:24:58.667Z,66.05
2022-08-25T08:27:03.087Z,66.25
2022-08-25T08:29:06.785Z,65.42
2022-08-25T08:31:13.843Z,65.17
2022-08-25T08:33:18.976Z,64.89
2022-08-25T08:35:23.686Z,64.78
2022-08-25T08:37:28.334Z,64.75
2022-08-25T08:39:32.764Z,64.42
2022-08-25T08:42:16.827Z,64.43
2022-08-25T08:44:37.300Z,63.16
2022-08-25T08:46:51.369Z,61.96
2022-08-25T08:49:06.223Z,62.00
2022-08-25T08:51:23.000Z,61.35
2022-08-25T08:53:33.948Z,60.64
2022-08-25T08:55:41.704Z,60.55
2022-08-25T08:59:58.324Z,60.86
2022-08-25T09:02:04.219Z,59.54
2022-08-25T09:04:14.941Z,58.76
2022-08-25T09:06:24.098Z,58.42
2022-08-25T09:08:27.721Z,58.50
2022-08-25T09:10:41.763Z,58.64
2022-08-25T09:12:55.330Z,57.66
2022-08-25T09:15:13.332Z,57.53
2022-08-25T09:17:25.424Z,57.20
2022-08-25T09:19:56.476Z,55.79
2022-08-25T09:22:35.478Z,55.65
2022-08-25T09:24:45.686Z,55.54
2022-08-25T09:27:00.014Z,54.62
2022-08-25T09:29:16.245Z,54.76
2022-08-25T09:31:29.182Z,54.61
2022-08-25T09:33:35.963Z,53.78
2022-08-25T09:35:42.104Z,53.51
2022-08-25T09:37:57.621Z,52.98
2022-08-25T09:40:02.005Z,53.43
2022-08-25T09:42:06.391Z,53.45
2022-08-25T09:44:19.982Z,53.16
2022-08-25T09:46:28.064Z,52.09
2022-08-25T09:48:40.882Z,52.47
2022-08-25T09:50:46.899Z,52.65
2022-08-25T09:52:53.395Z,52.29
2022-08-25T09:54:59.703Z,52.05
2022-08-25T09:57:08.690Z,51.47
2022-08-25T09:59:34.297Z,50.64
2022-08-25T10:01:51.583Z,49.49
2022-08-25T10:04:01.619Z,48.99
2022-08-25T10:06:13.293Z,48.11
2022-08-25T10:08:31.629Z,48.22
2022-08-25T10:10:41.921Z,46.16
2022-08-25T10:12:51.487Z,46.34
2022-08-25T10:14:55.466Z,46.60
2022-08-25T10:17:17.237Z,46.46
2022-08-25T10:19:27.566Z,46.37
2022-08-25T10:21:32.982Z,45.73
2022-08-25T10:23:41.031Z,45.19
2022-08-25T10:25:59.110Z,44.79
2022-08-25T10:28:12.562Z,45.31
2022-08-25T10:30:22.300Z,44.97
2022-08-25T10:32:37.420Z,44.56
2022-08-25T10:34:51.956Z,43.19
2022-08-25T10:37:13.588Z,44.02
2022-08-25T10:39:36.455Z,43.15
2022-08-25T10:41:53.488Z,42.00
2022-08-25T10:44:30.442Z,41.80
2022-08-25T10:46:42.372Z,41.49
2022-08-25T10:49:05.314Z,40.68
2022-08-25T10:51:26.282Z,41.40
2022-08-25T10:53:42.585Z,41.00
2022-08-25T10:55:58.116Z,41.36
2022-08-25T10:58:12.927Z,40.87
2022-08-25T11:00:22.832Z,40.77
2022-08-25T11:03:11.954Z,40.50
2022-08-25T11:05:25.299Z,40.48
2022-08-25T11:07:34.970Z,40.51
2022-08-25T11:09:44.532Z,40.31
2022-08-25T11:11:54.728Z,39.54
2022-08-25T11:14:05.704Z,39.07
2022-08-25T11:16:18.859Z,39.49
2022-08-25T11:18:28.222Z,40.02
2022-08-25T11:20:37.493Z,40.14
2022-08-25T11:22:46.095Z,39.54
2022-08-25T11:25:04.113Z,39.20
2022-08-25T11:27:13.785Z,39.81
2022-08-25T11:29:21.252Z,40.11
2022-08-25T11:31:27.629Z,40.61
2022-08-25T11:33:33.283Z,41.07
2022-08-25T11:35:41.121Z,41.16
2022-08-25T11:38:00.429Z,41.19
2022-08-25T11:40:28.317Z,40.59
2022-08-25T11:42:45.804Z,40.98
2022-08-25T11:45:00.487Z,40.43
2022-08-25T11:47:43.167Z,41.33
2022-08-25T11:49:54.253Z,42.08
2022-08-25T11:52:02.981Z,42.20
2022-08-25T11:54:19.566Z,42.27
2022-08-25T11:56:35.849Z,42.13
2022-08-25T11:58:57.608Z,42.56
2022-08-25T12:01:03.416Z,42.85
2022-08-25T12:03:46.156Z,42.89
2022-08-25T12:06:14.859Z,42.01
2022-08-25T12:08:52.025Z,42.75
2022-08-25T12:11:00.342Z,43.31
2022-08-25T12:13:26.947Z,42.79
2022-08-25T12:15:59.956Z,42.77
2022-08-25T12:18:13.604Z,42.67
2022-08-25T12:20:18.962Z,43.46
2022-08-25T12:22:56.622Z,43.84
2022-08-25T12:25:08.906Z,44.42
2022-08-25T12:27:26.878Z,44.03
2022-08-25T12:29:42.765Z,44.38
2022-08-25T12:32:04.994Z,45.04
2022-08-25T12:34:34.789Z,45.29
2022-08-25T12:36:39.980Z,45.05
2022-08-25T12:38:50.934Z,45.24
2022-08-25T12:41:03.153Z,45.31
2022-08-25T12:43:11.722Z,45.28
2022-08-25T12:45:38.331Z,45.32
2022-08-25T12:47:44.991Z,44.86
2022-08-25T12:49:49.099Z,44.28
2022-08-25T12:51:57.383Z,44.43
2022-08-25T12:54:22.378Z,44.74
2022-08-25T12:56:39.103Z,44.95
2022-08-25T12:59:00.894Z,44.87
2022-08-25T13:01:35.724Z,45.18
2022-08-25T13:04:09.434Z,44.58
2022-08-25T13:06:27.308Z,44.46
2022-08-25T13:09:23.271Z,44.06
2022-08-25T13:11:36.216Z,43.81
2022-08-25T13:13:53.134Z,42.62
2022-08-25T13:16:02.117Z,42.76
2022-08-25T13:18:23.640Z,43.19
2022-08-25T13:20:30.124Z,43.46
2022-08-25T13:22:33.808Z,44.00
2022-08-25T13:24:42.819Z,43.65
2022-08-25T13:26:49.435Z,43.42
2022-08-25T13:28:58.299Z,43.25
2022-08-25T13:31:07.815Z,42.69
2022-08-25T13:33:20.201Z,42.88
2022-08-25T13:35:32.200Z,43.10
2022-08-25T13:37:35.291Z,42.96
2022-08-25T13:39:55.457Z,43.45
2022-08-25T13:42:04.374Z,43.62
2022-08-25T13:44:13.089Z,43.54
2022-08-25T13:46:21.692Z,43.74
2022-08-25T13:48:36.020Z,43.56
2022-08-25T13:50:44.283Z,43.10
2022-08-25T13:52:58.967Z,42.65
2022-08-25T13:55:04.652Z,41.98
2022-08-25T13:57:14.296Z,41.88
2022-08-25T13:59:26.309Z,41.47
2022-08-25T14:01:48.888Z,40.91
2022-08-25T14:03:55.323Z,41.20
2022-08-25T14:06:12.817Z,40.80
2022-08-25T14:08:32.609Z,40.92
2022-08-25T14:10:40.873Z,41.14
2022-08-25T14:12:47.105Z,41.54
2022-08-25T14:15:00.330Z,41.76
2022-08-25T14:17:21.935Z,41.79
2022-08-25T14:19:31.963Z,41.32
2022-08-25T14:21:37.198Z,41.12
2022-08-25T14:23:45.746Z,41.00
2022-08-25T14:25:50.966Z,41.21
2022-08-25T14:28:06.753Z,41.23
2022-08-25T14:30:28.958Z,41.18
2022-08-25T14:32:33.224Z,41.03
2022-08-25T14:34:39.625Z,41.07
2022-08-25T14:36:48.588Z,40.83
2022-08-25T14:38:55.151Z,40.66
2022-08-25T14:40:59.586Z,40.51
2022-08-25T14:43:03.693Z,40.82
2022-08-25T14:45:09.571Z,41.40
2022-08-25T14:47:13.443Z,41.85
2022-08-25T14:49:24.854Z,42.08
2022-08-25T14:51:32.132Z,41.83
2022-08-25T14:53:37.244Z,41.74
2022-08-25T14:55:41.294Z,41.81
2022-08-25T14:57:45.658Z,41.67
2022-08-25T14:59:50.196Z,41.69
2022-08-25T15:01:54.327Z,41.85
2022-08-25T15:04:02.715Z,42.25
2022-08-25T15:06:07.709Z,42.39
2022-08-25T15:08:33.481Z,42.52
2022-08-25T15:10:38.715Z,42.33
2022-08-25T15:12:47.831Z,42.25
2022-08-25T15:14:52.033Z,42.18
2022-08-25T15:16:58.246Z,42.26
2022-08-25T15:19:03.140Z,42.21
2022-08-25T15:21:10.280Z,42.16
2022-08-25T15:23:13.775Z,42.00
2022-08-25T15:25:18.440Z,42.30
2022-08-25T15:27:24.680Z,42.44
2022-08-25T15:29:36.564Z,42.76
2022-08-25T15:31:41.799Z,42.52
2022-08-25T15:33:46.013Z,42.62
2022-08-25T15:35:50.006Z,42.86
2022-08-25T15:37:53.762Z,43.13
2022-08-25T15:39:57.626Z,43.40
2022-08-25T15:42:02.827Z,43.23
2022-08-25T15:44:12.613Z,43.25
2022-08-25T15:46:20.870Z,43.17
2022-08-25T15:48:24.711Z,43.13
2022-08-25T15:50:28.954Z,43.34
2022-08-25T15:52:46.023Z,43.50
2022-08-25T15:54:50.531Z,43.38
2022-08-25T15:56:54.235Z,43.60
2022-08-25T15:58:58.858Z,43.25
2022-08-25T16:01:04.156Z,43.40
2022-08-25T16:03:08.639Z,43.52
2022-08-25T16:05:13.505Z,43.41
2022-08-25T16:07:17.321Z,43.40
2022-08-25T16:09:22.840Z,43.44
2022-08-25T16:11:28.890Z,43.42
2022-08-25T16:13:34.650Z,43.43
2022-08-25T16:15:39.381Z,43.58
2022-08-25T16:17:50.563Z,43.98
2022-08-25T16:19:54.980Z,44.01
2022-08-25T16:21:59.877Z,44.05
2022-08-25T16:24:07.606Z,44.03
2022-08-25T16:26:13.021Z,43.95
2022-08-25T16:28:18.940Z,44.15
2022-08-25T16:30:23.031Z,44.27
2022-08-25T16:32:27.215Z,44.28
2022-08-25T16:34:32.774Z,44.32
2022-08-25T16:36:39.719Z,44.38
2022-08-25T16:38:48.988Z,44.42
2022-08-25T16:40:54.119Z,44.40
2022-08-25T16:42:59.365Z,44.54
2022-08-25T16:45:03.024Z,44.49
2022-08-25T16:47:09.129Z,44.51
2022-08-25T16:49:15.937Z,44.53
2022-08-25T16:51:29.527Z,44.38
2022-08-25T16:53:51.011Z,44.55
2022-08-25T16:56:02.440Z,44.73
2022-08-25T16:58:06.806Z,44.75
2022-08-25T17:00:13.933Z,44.93
2022-08-25T17:02:18.634Z,45.17
2022-08-25T17:04:29.538Z,45.38
2022-08-25T17:06:41.375Z,45.62
2022-08-25T17:08:53.890Z,45.46
2022-08-25T17:11:05.897Z,45.61
2022-08-25T17:13:10.804Z,45.72
2022-08-25T17:15:21.412Z,45.79
2022-08-25T17:17:27.068Z,46.07
2022-08-25T17:19:31.034Z,46.01
2022-08-25T17:21:40.809Z,46.00
2022-08-25T17:23:49.618Z,45.96
2022-08-25T17:25:55.567Z,46.07
2022-08-25T17:27:59.748Z,46.10
2022-08-25T17:30:06.174Z,46.13
2022-08-25T17:32:10.167Z,46.32
2022-08-25T17:34:16.921Z,46.60
2022-08-25T17:36:26.981Z,46.41
2022-08-25T17:38:33.906Z,46.54
2022-08-25T17:40:37.964Z,46.72
2022-08-25T17:42:41.627Z,46.75
2022-08-25T17:44:45.222Z,46.70
2022-08-25T17:46:49.500Z,46.81
2022-08-25T17:48:53.433Z,46.87
2022-08-25T17:50:57.633Z,46.86
2022-08-25T17:53:01.864Z,46.94
2022-08-25T17:55:08.708Z,46.81
2022-08-25T17:57:16.360Z,46.89
2022-08-25T17:59:20.416Z,46.96
2022-08-25T18:01:26.339Z,46.89
2022-08-25T18:03:31.387Z,47.15
2022-08-25T18:05:37.547Z,47.18
2022-08-25T18:07:41.283Z,47.27
2022-08-25T18:09:48.087Z,47.43
2022-08-25T18:11:54.057Z,47.52
2022-08-25T18:13:58.230Z,47.52
2022-08-25T18:16:02.926Z,47.59
2022-08-25T18:18:08.456Z,47.68
2022-08-25T18:20:15.022Z,47.70
2022-08-25T18:22:18.799Z,47.70
2022-08-25T18:24:23.539Z,47.73
2022-08-25T18:26:27.454Z,47.85
2022-08-25T18:28:33.057Z,47.99
2022-08-25T18:30:39.561Z,48.40
2022-08-25T18:32:43.655Z,48.15
2022-08-25T18:34:47.497Z,48.22
2022-08-25T18:36:51.888Z,48.37
2022-08-25T18:39:13.717Z,48.31
2022-08-25T18:41:18.216Z,48.58
2022-08-25T18:43:22.267Z,48.54
2022-08-25T18:45:33.032Z,48.76
2022-08-25T18:47:37.927Z,48.91
2022-08-25T18:49:42.150Z,49.02
2022-08-25T18:51:46.630Z,49.25
2022-08-25T18:53:54.718Z,49.32
2022-08-25T18:56:03.434Z,49.48
2022-08-25T18:58:08.704Z,49.51
2022-08-25T19:00:18.870Z,50.00
2022-08-25T19:02:24.260Z,50.07
2022-08-25T19:04:31.870Z,50.18
2022-08-25T19:06:37.445Z,50.60
2022-08-25T19:08:42.150Z,50.67
2022-08-25T19:10:48.041Z,50.75
2022-08-25T19:12:52.636Z,50.94
2022-08-25T19:14:56.778Z,51.18
2022-08-25T19:17:01.002Z,51.28
2022-08-25T19:19:08.257Z,51.72
2022-08-25T19:21:13.253Z,52.21
2022-08-25T19:23:17.421Z,52.12
2022-08-25T19:25:22.441Z,52.65
2022-08-25T19:27:27.341Z,52.76
2022-08-25T19:29:32.729Z,53.00
2022-08-25T19:31:37.126Z,53.48
2022-08-25T19:33:45.161Z,53.47
2022-08-25T19:35:53.448Z,53.57
2022-08-25T19:37:57.763Z,53.91
2022-08-25T19:40:02.472Z,53.81
2022-08-25T19:42:08.736Z,53.98
2022-08-25T19:44:32.552Z,54.50
2022-08-25T19:46:39.013Z,54.47
2022-08-25T19:48:43.410Z,54.74
2022-08-25T19:50:47.222Z,55.24
2022-08-25T19:52:54.185Z,55.49
2022-08-25T19:54:57.802Z,55.59
2022-08-25T19:57:02.715Z,56.03
2022-08-25T19:59:06.523Z,56.43
2022-08-25T20:01:10.449Z,56.75
2022-08-25T20:03:14.303Z,57.12
2022-08-25T20:05:23.892Z,57.69
2022-08-25T20:07:30.908Z,57.59
2022-08-25T20:09:40.719Z,57.71
2022-08-25T20:11:45.457Z,58.24
2022-08-25T20:14:03.118Z,57.90
2022-08-25T20:16:08.366Z,58.01
2022-08-25T20:18:12.104Z,58.39
2022-08-25T20:20:18.355Z,58.50
2022-08-25T20:22:26.349Z,58.40
2022-08-25T20:24:57.347Z,58.41
2022-08-25T20:27:03.548Z,58.48
2022-08-25T20:29:07.237Z,58.51
2022-08-25T20:31:13.358Z,58.84
2022-08-25T20:33:22.509Z,58.88
2022-08-25T20:35:29.441Z,59.15
2022-08-25T20:37:33.724Z,59.23
2022-08-25T20:39:38.160Z,59.29
2022-08-25T20:41:42.209Z,59.10
2022-08-25T20:43:53.909Z,59.16
2022-08-25T20:46:02.790Z,59.33
2022-08-25T20:48:09.187Z,59.29
2022-08-25T20:50:13.762Z,59.65
2022-08-25T20:52:20.087Z,59.56
2022-08-25T20:54:25.914Z,59.51
2022-08-25T20:56:32.416Z,59.75
2022-08-25T20:58:37.955Z,59.80
2022-08-25T21:00:47.543Z,60.20
2022-08-25T21:02:52.852Z,60.13
2022-08-25T21:04:58.046Z,60.21
2022-08-25T21:07:03.282Z,60.59
2022-08-25T21:09:13.761Z,60.42
2022-08-25T21:11:19.894Z,60.57
2022-08-25T21:13:23.837Z,60.75
2022-08-25T21:15:28.773Z,60.91
2022-08-25T21:17:34.665Z,60.87
2022-08-25T21:19:40.183Z,61.54
2022-08-25T21:21:46.348Z,61.36
2022-08-25T21:23:53.072Z,61.62
2022-08-25T21:25:57.132Z,61.47
2022-08-25T21:28:01.634Z,61.93
2022-08-25T21:30:06.436Z,61.73
2022-08-25T21:32:11.328Z,61.74
2022-08-25T21:34:18.610Z,61.96
2022-08-25T21:36:23.671Z,61.97
2022-08-25T21:38:28.546Z,62.40
2022-08-25T21:40:37.024Z,62.83
2022-08-25T21:42:40.673Z,62.89
2022-08-25T21:44:45.592Z,62.58
2022-08-25T21:46:54.176Z,62.67
2022-08-25T21:48:58.700Z,62.38
2022-08-25T21:51:10.684Z,62.52
2022-08-25T21:53:14.452Z,62.53
2022-08-25T21:55:18.555Z,62.78
2022-08-25T21:57:23.803Z,63.13
2022-08-25T21:59:29.908Z,63.01
2022-08-25T22:01:33.876Z,62.93
2022-08-25T22:03:38.184Z,63.15
2022-08-25T22:05:42.010Z,62.82
2022-08-25T22:07:50.527Z,62.93
2022-08-25T22:09:56.230Z,63.44
2022-08-25T22:12:07.680Z,63.09
2022-08-25T22:14:16.797Z,63.18
2022-08-25T22:16:24.979Z,63.54
2022-08-25T22:18:32.389Z,63.53
2022-08-25T22:20:36.052Z,63.45
2022-08-25T22:22:44.252Z,63.91
2022-08-25T22:24:49.892Z,64.15
2022-08-25T22:26:54.762Z,64.37
2022-08-25T22:29:00.160Z,64.60
2022-08-25T22:31:07.258Z,64.76
2022-08-25T22:33:12.261Z,65.07
2022-08-25T22:35:16.365Z,64.90
2022-08-25T22:37:22.625Z,65.04
2022-08-25T22:39:27.206Z,65.28
2022-08-25T22:41:33.077Z,65.14
2022-08-25T22:43:37.332Z,65.27
2022-08-25T22:45:41.239Z,65.04
2022-08-25T22:47:45.408Z,65.69
2022-08-25T22:49:49.109Z,65.35
2022-08-25T22:51:53.730Z,65.34
2022-08-25T22:53:59.591Z,65.47
2022-08-25T22:56:03.809Z,65.75
2022-08-25T22:58:09.383Z,65.73
2022-08-25T23:00:16.574Z,65.61
2022-08-25T23:02:20.603Z,65.37
2022-08-25T23:04:25.292Z,65.70
2022-08-25T23:06:29.077Z,65.87
2022-08-25T23:08:40.654Z,65.85
2022-08-25T23:10:50.332Z,65.94
2022-08-25T23:12:54.421Z,66.10
2022-08-25T23:15:00.473Z,65.78
2022-08-25T23:17:07.505Z,66.07
2022-08-25T23:19:14.820Z,65.96
2022-08-25T23:21:40.748Z,66.12
2022-08-25T23:23:45.378Z,65.93
2022-08-25T23:25:50.024Z,66.19
2022-08-25T23:27:54.951Z,65.51
2022-08-25T23:30:00.427Z,65.81
2022-08-25T23:32:05.163Z,65.77
2022-08-25T23:34:09.597Z,65.91
2022-08-25T23:36:16.627Z,65.68
2022-08-25T23:38:20.572Z,65.69
2022-08-25T23:40:24.436Z,66.19
2022-08-25T23:42:28.164Z,66.09
2022-08-25T23:44:31.628Z,65.86
2022-08-25T23:46:36.922Z,66.03
2022-08-25T23:48:40.648Z,66.14
2022-08-25T23:50:47.257Z,65.86
2022-08-25T23:52:57.688Z,66.32
2022-08-25T23:55:02.595Z,66.14
2022-08-25T23:57:06.978Z,66.21
2022-08-25T23:59:11.132Z,65.70
